Cranberry, North Carolina
Current Conditions -  °F | °C
As of 9:15 AM on Saturday 20 Dec 2014 (Local Time) from KTNB Reporting Station
Scattered Clouds Scattered Clouds  
Wind Chill: 33°   Ceiling: Unl
Heat Index: 33°   Visibility: 10mi
Dew Point: 26°   Wind: 0mph
Humidity: 78%   Direction: NA
Pressure: 30.17"   Gusts: NA
Location:  36.1731°N, 81.9572°W
Report Text: KTNB 201415Z AUTO 00000KT 10SM SCT014 SCT032 SCT055 00/M03 A3017 RMK AO2 T00031032
Loading
Personal Weather Stations






























Interactive Weather Map New forecast layout! Learn more

10-Day Weather Forecast

Advertisements
Track Severe Weather on mobile